sensor_id;sensor_type;location;lat;lon;timestamp;temperature;humidity
16247;DHT22;8231;50.866;7.944;2022-08-25T00:01:53;17.50;99.90
16247;DHT22;8231;50.866;7.944;2022-08-25T00:04:22;17.50;99.90
16247;DHT22;8231;50.866;7.944;2022-08-25T00:06:50;17.40;99.90
16247;DHT22;8231;50.866;7.944;2022-08-25T00:09:27;17.50;99.90
16247;DHT22;8231;50.866;7.944;2022-08-25T00:11:55;17.30;99.90
16247;DHT22;8231;50.866;7.944;2022-08-25T00:14:27;17.30;99.90
16247;DHT22;8231;50.866;7.944;2022-08-25T00:16:56;17.30;99.90
16247;DHT22;8231;50.866;7.944;2022-08-25T00:19:26;17.30;99.90
16247;DHT22;8231;50.866;7.944;2022-08-25T00:21:55;17.30;99.90
16247;DHT22;8231;50.866;7.944;2022-08-25T00:24:23;17.30;99.90
16247;DHT22;8231;50.866;7.944;2022-08-25T00:26:53;17.30;99.90
16247;DHT22;8231;50.866;7.944;2022-08-25T00:29:23;17.30;99.90
16247;DHT22;8231;50.866;7.944;2022-08-25T00:31:54;17.20;99.90
16247;DHT22;8231;50.866;7.944;2022-08-25T00:34:26;17.20;99.90
16247;DHT22;8231;50.866;7.944;2022-08-25T00:36:55;17.20;99.90
16247;DHT22;8231;50.866;7.944;2022-08-25T00:39:24;17.20;99.90
16247;DHT22;8231;50.866;7.944;2022-08-25T00:41:55;17.20;99.90
16247;DHT22;8231;50.866;7.944;2022-08-25T00:44:25;17.10;99.90
16247;DHT22;8231;50.866;7.944;2022-08-25T00:46:57;17.10;99.90
16247;DHT22;8231;50.866;7.944;2022-08-25T00:49:31;17.10;99.90
16247;DHT22;8231;50.866;7.944;2022-08-25T00:52:02;17.10;99.90
16247;DHT22;8231;50.866;7.944;2022-08-25T00:54:33;17.00;99.90
16247;DHT22;8231;50.866;7.944;2022-08-25T00:57:03;16.90;99.90
16247;DHT22;8231;50.866;7.944;2022-08-25T00:59:32;17.00;99.90
16247;DHT22;8231;50.866;7.944;2022-08-25T01:02:04;16.90;99.90
16247;DHT22;8231;50.866;7.944;2022-08-25T01:04:39;17.00;99.90
16247;DHT22;8231;50.866;7.944;2022-08-25T01:07:17;17.00;99.90
16247;DHT22;8231;50.866;7.944;2022-08-25T01:09:46;17.00;99.90
16247;DHT22;8231;50.866;7.944;2022-08-25T01:12:16;16.90;99.90
16247;DHT22;8231;50.866;7.944;2022-08-25T01:14:45;16.90;99.90
16247;DHT22;8231;50.866;7.944;2022-08-25T01:17:16;16.90;99.90
16247;DHT22;8231;50.866;7.944;2022-08-25T01:19:44;16.80;99.90
16247;DHT22;8231;50.866;7.944;2022-08-25T01:22:13;16.70;99.90
16247;DHT22;8231;50.866;7.944;2022-08-25T01:24:46;16.70;99.90
16247;DHT22;8231;50.866;7.944;2022-08-25T01:27:17;16.70;99.90
16247;DHT22;8231;50.866;7.944;2022-08-25T01:29:45;16.60;99.90
16247;DHT22;8231;50.866;7.944;2022-08-25T01:32:14;16.60;99.90
16247;DHT22;8231;50.866;7.944;2022-08-25T01:34:44;16.50;99.90
16247;DHT22;8231;50.866;7.944;2022-08-25T01:37:15;16.50;99.90
16247;DHT22;8231;50.866;7.944;2022-08-25T01:39:45;16.50;99.90
16247;DHT22;8231;50.866;7.944;2022-08-25T01:42:32;16.50;99.90
16247;DHT22;8231;50.866;7.944;2022-08-25T01:45:05;16.50;99.90
16247;DHT22;8231;50.866;7.944;2022-08-25T01:47:33;16.50;99.90
16247;DHT22;8231;50.866;7.944;2022-08-25T01:50:02;16.50;99.90
16247;DHT22;8231;50.866;7.944;2022-08-25T01:52:36;16.60;99.90
16247;DHT22;8231;50.866;7.944;2022-08-25T01:55:05;16.50;99.90
16247;DHT22;8231;50.866;7.944;2022-08-25T01:57:33;16.50;99.90
16247;DHT22;8231;50.866;7.944;2022-08-25T02:00:04;16.50;99.90
16247;DHT22;8231;50.866;7.944;2022-08-25T02:02:36;16.50;99.90
16247;DHT22;8231;50.866;7.944;2022-08-25T02:05:09;16.50;99.90
16247;DHT22;8231;50.866;7.944;2022-08-25T02:07:40;16.50;99.90
16247;DHT22;8231;50.866;7.944;2022-08-25T02:10:10;16.40;99.90
16247;DHT22;8231;50.866;7.944;2022-08-25T02:12:38;16.40;99.90
16247;DHT22;8231;50.866;7.944;2022-08-25T02:15:07;16.40;99.90
16247;DHT22;8231;50.866;7.944;2022-08-25T02:17:36;16.40;99.90
16247;DHT22;8231;50.866;7.944;2022-08-25T02:20:05;16.30;99.90
16247;DHT22;8231;50.866;7.944;2022-08-25T02:22:34;16.30;99.90
16247;DHT22;8231;50.866;7.944;2022-08-25T02:25:04;16.30;99.90
16247;DHT22;8231;50.866;7.944;2022-08-25T02:27:33;16.30;99.90
16247;DHT22;8231;50.866;7.944;2022-08-25T02:30:03;16.30;99.90
16247;DHT22;8231;50.866;7.944;2022-08-25T02:32:31;16.20;99.90
16247;DHT22;8231;50.866;7.944;2022-08-25T02:34:59;16.20;99.90
16247;DHT22;8231;50.866;7.944;2022-08-25T02:37:27;16.20;99.90
16247;DHT22;8231;50.866;7.944;2022-08-25T02:39:55;16.20;99.90
16247;DHT22;8231;50.866;7.944;2022-08-25T02:42:25;16.20;99.90
16247;DHT22;8231;50.866;7.944;2022-08-25T02:44:53;16.10;99.90
16247;DHT22;8231;50.866;7.944;2022-08-25T02:47:22;16.10;99.90
16247;DHT22;8231;50.866;7.944;2022-08-25T02:49:53;16.10;99.90
16247;DHT22;8231;50.866;7.944;2022-08-25T02:52:21;16.10;99.90
16247;DHT22;8231;50.866;7.944;2022-08-25T02:54:49;16.00;99.90
16247;DHT22;8231;50.866;7.944;2022-08-25T02:57:17;16.00;99.90
16247;DHT22;8231;50.866;7.944;2022-08-25T02:59:47;16.00;99.90
16247;DHT22;8231;50.866;7.944;2022-08-25T03:02:15;16.00;99.90
16247;DHT22;8231;50.866;7.944;2022-08-25T03:04:43;15.90;99.90
16247;DHT22;8231;50.866;7.944;2022-08-25T03:07:12;15.80;99.90
16247;DHT22;8231;50.866;7.944;2022-08-25T03:09:41;15.80;99.90
16247;DHT22;8231;50.866;7.944;2022-08-25T03:12:10;15.70;99.90
16247;DHT22;8231;50.866;7.944;2022-08-25T03:14:39;15.70;99.90
16247;DHT22;8231;50.866;7.944;2022-08-25T03:17:10;15.60;99.90
16247;DHT22;8231;50.866;7.944;2022-08-25T03:19:38;15.60;99.90
16247;DHT22;8231;50.866;7.944;2022-08-25T03:22:06;15.60;99.90
16247;DHT22;8231;50.866;7.944;2022-08-25T03:24:35;15.60;99.90
16247;DHT22;8231;50.866;7.944;2022-08-25T03:27:03;15.60;99.90
16247;DHT22;8231;50.866;7.944;2022-08-25T03:29:32;15.60;99.90
16247;DHT22;8231;50.866;7.944;2022-08-25T03:32:00;15.60;99.90
16247;DHT22;8231;50.866;7.944;2022-08-25T03:34:30;15.50;99.90
16247;DHT22;8231;50.866;7.944;2022-08-25T03:36:58;15.50;99.90
16247;DHT22;8231;50.866;7.944;2022-08-25T03:39:27;15.50;99.90
16247;DHT22;8231;50.866;7.944;2022-08-25T03:41:55;15.50;99.90
16247;DHT22;8231;50.866;7.944;2022-08-25T03:44:23;15.50;99.90
16247;DHT22;8231;50.866;7.944;2022-08-25T03:46:51;15.40;99.90
16247;DHT22;8231;50.866;7.944;2022-08-25T03:49:22;15.60;99.90
16247;DHT22;8231;50.866;7.944;2022-08-25T03:51:53;15.50;99.90
16247;DHT22;8231;50.866;7.944;2022-08-25T03:54:23;15.40;99.90
16247;DHT22;8231;50.866;7.944;2022-08-25T03:56:52;15.40;99.90
16247;DHT22;8231;50.866;7.944;2022-08-25T03:59:20;15.40;99.90
16247;DHT22;8231;50.866;7.944;2022-08-25T04:01:49;15.40;99.90
16247;DHT22;8231;50.866;7.944;2022-08-25T04:04:21;15.30;99.90
16247;DHT22;8231;50.866;7.944;2022-08-25T04:06:49;15.30;99.90
16247;DHT22;8231;50.866;7.944;2022-08-25T04:09:20;15.30;99.90
16247;DHT22;8231;50.866;7.944;2022-08-25T04:11:48;15.20;99.90
16247;DHT22;8231;50.866;7.944;2022-08-25T04:14:20;15.30;99.90
16247;DHT22;8231;50.866;7.944;2022-08-25T04:16:49;15.20;99.90
16247;DHT22;8231;50.866;7.944;2022-08-25T04:19:19;15.10;99.90
16247;DHT22;8231;50.866;7.944;2022-08-25T04:21:47;15.10;99.90
16247;DHT22;8231;50.866;7.944;2022-08-25T04:24:23;15.10;99.90
16247;DHT22;8231;50.866;7.944;2022-08-25T04:26:51;15.10;99.90
16247;DHT22;8231;50.866;7.944;2022-08-25T04:29:22;15.10;99.90
16247;DHT22;8231;50.866;7.944;2022-08-25T04:31:51;15.00;99.90
16247;DHT22;8231;50.866;7.944;2022-08-25T04:34:22;14.90;99.90
16247;DHT22;8231;50.866;7.944;2022-08-25T04:36:57;15.00;99.90
16247;DHT22;8231;50.866;7.944;2022-08-25T04:39:28;15.10;99.90
16247;DHT22;8231;50.866;7.944;2022-08-25T04:41:57;15.00;99.90
16247;DHT22;8231;50.866;7.944;2022-08-25T04:44:27;15.00;99.90
16247;DHT22;8231;50.866;7.944;2022-08-25T04:46:56;15.00;99.90
16247;DHT22;8231;50.866;7.944;2022-08-25T04:49:25;15.00;99.90
16247;DHT22;8231;50.866;7.944;2022-08-25T04:51:53;15.00;99.90
16247;DHT22;8231;50.866;7.944;2022-08-25T04:54:23;15.10;99.90
16247;DHT22;8231;50.866;7.944;2022-08-25T04:56:53;15.00;99.90
16247;DHT22;8231;50.866;7.944;2022-08-25T04:59:25;15.00;99.90
16247;DHT22;8231;50.866;7.944;2022-08-25T05:01:57;15.00;99.90
16247;DHT22;8231;50.866;7.944;2022-08-25T05:04:28;15.00;99.90
16247;DHT22;8231;50.866;7.944;2022-08-25T05:06:58;15.00;99.90
16247;DHT22;8231;50.866;7.944;2022-08-25T05:09:26;15.00;99.90
16247;DHT22;8231;50.866;7.944;2022-08-25T05:12:00;15.00;99.90
16247;DHT22;8231;50.866;7.944;2022-08-25T05:14:29;15.10;99.90
16247;DHT22;8231;50.866;7.944;2022-08-25T05:16:58;15.20;99.90
16247;DHT22;8231;50.866;7.944;2022-08-25T05:19:26;15.20;99.90
16247;DHT22;8231;50.866;7.944;2022-08-25T05:21:54;15.20;99.90
16247;DHT22;8231;50.866;7.944;2022-08-25T05:24:24;15.30;99.90
16247;DHT22;8231;50.866;7.944;2022-08-25T05:26:53;15.50;99.90
16247;DHT22;8231;50.866;7.944;2022-08-25T05:29:23;15.80;99.90
16247;DHT22;8231;50.866;7.944;2022-08-25T05:31:51;16.00;99.90
16247;DHT22;8231;50.866;7.944;2022-08-25T05:34:20;16.20;99.90
16247;DHT22;8231;50.866;7.944;2022-08-25T05:36:48;16.50;99.90
16247;DHT22;8231;50.866;7.944;2022-08-25T05:39:17;17.00;99.90
16247;DHT22;8231;50.866;7.944;2022-08-25T05:41:45;17.50;99.90
16247;DHT22;8231;50.866;7.944;2022-08-25T05:44:13;18.10;99.90
16247;DHT22;8231;50.866;7.944;2022-08-25T05:46:48;18.60;99.90
16247;DHT22;8231;50.866;7.944;2022-08-25T05:49:17;19.10;99.90
16247;DHT22;8231;50.866;7.944;2022-08-25T05:51:45;19.60;99.90
16247;DHT22;8231;50.866;7.944;2022-08-25T05:54:14;20.00;99.90
16247;DHT22;8231;50.866;7.944;2022-08-25T05:56:42;20.50;99.90
16247;DHT22;8231;50.866;7.944;2022-08-25T05:59:11;20.90;99.90
16247;DHT22;8231;50.866;7.944;2022-08-25T06:01:39;21.10;99.90
16247;DHT22;8231;50.866;7.944;2022-08-25T06:04:26;21.00;99.90
16247;DHT22;8231;50.866;7.944;2022-08-25T06:06:54;20.80;99.90
16247;DHT22;8231;50.866;7.944;2022-08-25T06:09:22;20.70;99.90
16247;DHT22;8231;50.866;7.944;2022-08-25T06:11:51;20.80;99.90
16247;DHT22;8231;50.866;7.944;2022-08-25T06:14:21;20.60;99.90
16247;DHT22;8231;50.866;7.944;2022-08-25T06:16:50;20.60;99.90
16247;DHT22;8231;50.866;7.944;2022-08-25T06:19:22;20.60;99.90
16247;DHT22;8231;50.866;7.944;2022-08-25T06:21:54;20.70;99.90
16247;DHT22;8231;50.866;7.944;2022-08-25T06:24:22;21.00;99.90
16247;DHT22;8231;50.866;7.944;2022-08-25T06:26:51;21.60;99.90
16247;DHT22;8231;50.866;7.944;2022-08-25T06:29:19;22.50;99.90
16247;DHT22;8231;50.866;7.944;2022-08-25T06:31:48;23.50;99.90
16247;DHT22;8231;50.866;7.944;2022-08-25T06:34:17;24.50;99.90
16247;DHT22;8231;50.866;7.944;2022-08-25T06:36:50;25.30;99.90
16247;DHT22;8231;50.866;7.944;2022-08-25T06:39:19;25.90;99.90
16247;DHT22;8231;50.866;7.944;2022-08-25T06:41:50;26.70;99.90
16247;DHT22;8231;50.866;7.944;2022-08-25T06:44:19;27.40;98.90
16247;DHT22;8231;50.866;7.944;2022-08-25T06:46:47;28.00;97.10
16247;DHT22;8231;50.866;7.944;2022-08-25T06:49:16;28.30;96.20
16247;DHT22;8231;50.866;7.944;2022-08-25T06:51:44;28.90;95.00
16247;DHT22;8231;50.866;7.944;2022-08-25T06:54:12;28.90;94.00
16247;DHT22;8231;50.866;7.944;2022-08-25T06:56:42;29.20;93.20
16247;DHT22;8231;50.866;7.944;2022-08-25T06:59:10;29.50;91.90
16247;DHT22;8231;50.866;7.944;2022-08-25T07:01:38;30.00;91.20
16247;DHT22;8231;50.866;7.944;2022-08-25T07:04:07;30.30;90.10
16247;DHT22;8231;50.866;7.944;2022-08-25T07:06:39;30.40;88.90
16247;DHT22;8231;50.866;7.944;2022-08-25T07:09:09;30.70;86.60
16247;DHT22;8231;50.866;7.944;2022-08-25T07:11:38;30.90;85.20
16247;DHT22;8231;50.866;7.944;2022-08-25T07:14:08;31.20;84.80
16247;DHT22;8231;50.866;7.944;2022-08-25T07:16:38;31.50;82.80
16247;DHT22;8231;50.866;7.944;2022-08-25T07:19:08;31.40;82.20
16247;DHT22;8231;50.866;7.944;2022-08-25T07:21:41;31.50;80.80
16247;DHT22;8231;50.866;7.944;2022-08-25T07:24:12;31.80;79.50
16247;DHT22;8231;50.866;7.944;2022-08-25T07:26:42;32.00;78.90
16247;DHT22;8231;50.866;7.944;2022-08-25T07:29:16;32.30;77.50
16247;DHT22;8231;50.866;7.944;2022-08-25T07:31:45;32.80;76.30
16247;DHT22;8231;50.866;7.944;2022-08-25T07:34:14;33.20;74.20
16247;DHT22;8231;50.866;7.944;2022-08-25T07:37:01;33.50;72.50
16247;DHT22;8231;50.866;7.944;2022-08-25T07:39:32;33.50;72.20
16247;DHT22;8231;50.866;7.944;2022-08-25T07:42:01;33.60;71.60
16247;DHT22;8231;50.866;7.944;2022-08-25T07:44:38;33.70;70.60
16247;DHT22;8231;50.866;7.944;2022-08-25T07:47:09;33.50;70.50
16247;DHT22;8231;50.866;7.944;2022-08-25T07:49:37;33.90;70.30
16247;DHT22;8231;50.866;7.944;2022-08-25T07:52:05;34.10;68.40
16247;DHT22;8231;50.866;7.944;2022-08-25T07:54:35;34.60;67.80
16247;DHT22;8231;50.866;7.944;2022-08-25T07:57:06;34.60;66.40
16247;DHT22;8231;50.866;7.944;2022-08-25T07:59:39;34.80;65.80
16247;DHT22;8231;50.866;7.944;2022-08-25T08:02:08;34.30;65.80
16247;DHT22;8231;50.866;7.944;2022-08-25T08:04:45;34.50;65.90
16247;DHT22;8231;50.866;7.944;2022-08-25T08:07:16;34.90;65.20
16247;DHT22;8231;50.866;7.944;2022-08-25T08:09:45;35.20;63.90
16247;DHT22;8231;50.866;7.944;2022-08-25T08:12:19;35.00;63.20
16247;DHT22;8231;50.866;7.944;2022-08-25T08:14:50;34.70;63.90
16247;DHT22;8231;50.866;7.944;2022-08-25T08:17:20;34.70;64.20
16247;DHT22;8231;50.866;7.944;2022-08-25T08:19:48;34.30;64.00
16247;DHT22;8231;50.866;7.944;2022-08-25T08:22:16;34.20;64.40
16247;DHT22;8231;50.866;7.944;2022-08-25T08:24:45;34.30;63.80
16247;DHT22;8231;50.866;7.944;2022-08-25T08:27:20;34.50;63.80
16247;DHT22;8231;50.866;7.944;2022-08-25T08:29:50;34.20;63.40
16247;DHT22;8231;50.866;7.944;2022-08-25T08:32:19;34.00;63.60
16247;DHT22;8231;50.866;7.944;2022-08-25T08:34:57;34.50;63.20
16247;DHT22;8231;50.866;7.944;2022-08-25T08:37:25;34.30;63.90
16247;DHT22;8231;50.866;7.944;2022-08-25T08:39:53;34.70;63.30
16247;DHT22;8231;50.866;7.944;2022-08-25T08:42:37;34.60;61.90
16247;DHT22;8231;50.866;7.944;2022-08-25T08:45:23;34.50;62.00
16247;DHT22;8231;50.866;7.944;2022-08-25T08:48:07;33.60;62.70
16247;DHT22;8231;50.866;7.944;2022-08-25T08:50:42;34.20;62.70
16247;DHT22;8231;50.866;7.944;2022-08-25T08:53:17;34.30;62.20
16247;DHT22;8231;50.866;7.944;2022-08-25T08:55:50;34.70;60.80
16247;DHT22;8231;50.866;7.944;2022-08-25T08:58:20;34.90;59.90
16247;DHT22;8231;50.866;7.944;2022-08-25T09:00:55;34.10;61.80
16247;DHT22;8231;50.866;7.944;2022-08-25T09:03:31;33.40;61.90
16247;DHT22;8231;50.866;7.944;2022-08-25T09:06:04;33.30;62.30
16247;DHT22;8231;50.866;7.944;2022-08-25T09:08:34;33.00;63.20
16247;DHT22;8231;50.866;7.944;2022-08-25T09:11:18;33.50;61.40
16247;DHT22;8231;50.866;7.944;2022-08-25T09:14:14;34.00;60.00
16247;DHT22;8231;50.866;7.944;2022-08-25T09:16:54;34.00;59.00
16247;DHT22;8231;50.866;7.944;2022-08-25T09:22:52;33.50;59.30
16247;DHT22;8231;50.866;7.944;2022-08-25T09:25:31;33.10;59.80
16247;DHT22;8231;50.866;7.944;2022-08-25T09:28:20;33.10;58.40
16247;DHT22;8231;50.866;7.944;2022-08-25T09:30:53;33.10;58.60
16247;DHT22;8231;50.866;7.944;2022-08-25T09:33:28;33.10;59.50
16247;DHT22;8231;50.866;7.944;2022-08-25T09:36:02;33.40;58.00
16247;DHT22;8231;50.866;7.944;2022-08-25T09:38:34;33.30;58.00
16247;DHT22;8231;50.866;7.944;2022-08-25T09:41:04;33.00;58.20
16247;DHT22;8231;50.866;7.944;2022-08-25T09:43:34;32.80;57.20
16247;DHT22;8231;50.866;7.944;2022-08-25T09:46:10;32.80;54.50
16247;DHT22;8231;50.866;7.944;2022-08-25T09:48:45;32.80;56.70
16247;DHT22;8231;50.866;7.944;2022-08-25T09:51:24;32.80;58.50
16247;DHT22;8231;50.866;7.944;2022-08-25T09:53:55;32.80;58.40
16247;DHT22;8231;50.866;7.944;2022-08-25T09:56:25;32.60;59.10
16247;DHT22;8231;50.866;7.944;2022-08-25T09:58:55;32.40;58.10
16247;DHT22;8231;50.866;7.944;2022-08-25T10:01:29;32.00;59.80
16247;DHT22;8231;50.866;7.944;2022-08-25T10:04:04;31.90;60.10
16247;DHT22;8231;50.866;7.944;2022-08-25T10:06:46;32.10;60.20
16247;DHT22;8231;50.866;7.944;2022-08-25T10:09:24;32.20;59.50
16247;DHT22;8231;50.866;7.944;2022-08-25T10:11:55;32.30;59.00
16247;DHT22;8231;50.866;7.944;2022-08-25T10:14:32;32.10;59.00
16247;DHT22;8231;50.866;7.944;2022-08-25T10:17:13;32.20;59.70
16247;DHT22;8231;50.866;7.944;2022-08-25T10:19:43;32.50;59.70
16247;DHT22;8231;50.866;7.944;2022-08-25T10:22:20;32.30;59.40
16247;DHT22;8231;50.866;7.944;2022-08-25T10:24:50;32.30;59.20
16247;DHT22;8231;50.866;7.944;2022-08-25T10:27:25;31.90;59.80
16247;DHT22;8231;50.866;7.944;2022-08-25T10:30:07;31.80;60.10
16247;DHT22;8231;50.866;7.944;2022-08-25T10:32:52;31.90;60.10
16247;DHT22;8231;50.866;7.944;2022-08-25T10:35:28;32.00;60.80
16247;DHT22;8231;50.866;7.944;2022-08-25T10:38:05;32.30;59.60
16247;DHT22;8231;50.866;7.944;2022-08-25T10:40:41;32.00;59.50
16247;DHT22;8231;50.866;7.944;2022-08-25T10:43:26;31.70;61.70
16247;DHT22;8231;50.866;7.944;2022-08-25T10:46:04;32.20;60.80
16247;DHT22;8231;50.866;7.944;2022-08-25T10:48:50;32.50;59.20
16247;DHT22;8231;50.866;7.944;2022-08-25T10:51:53;32.90;58.00
16247;DHT22;8231;50.866;7.944;2022-08-25T10:54:28;32.60;58.10
16247;DHT22;8231;50.866;7.944;2022-08-25T10:57:04;32.80;58.00
16247;DHT22;8231;50.866;7.944;2022-08-25T10:59:49;33.00;57.40
16247;DHT22;8231;50.866;7.944;2022-08-25T11:02:55;33.50;57.20
16247;DHT22;8231;50.866;7.944;2022-08-25T11:05:30;33.70;56.00
16247;DHT22;8231;50.866;7.944;2022-08-25T11:08:09;33.30;57.50
16247;DHT22;8231;50.866;7.944;2022-08-25T11:10:44;33.10;57.70
16247;DHT22;8231;50.866;7.944;2022-08-25T11:13:21;32.80;58.50
16247;DHT22;8231;50.866;7.944;2022-08-25T11:15:54;33.10;57.90
16247;DHT22;8231;50.866;7.944;2022-08-25T11:18:48;33.90;58.20
16247;DHT22;8231;50.866;7.944;2022-08-25T11:21:21;34.40;56.00
16247;DHT22;8231;50.866;7.944;2022-08-25T11:24:00;34.50;55.60
16247;DHT22;8231;50.866;7.944;2022-08-25T11:26:33;34.70;55.20
16247;DHT22;8231;50.866;7.944;2022-08-25T11:29:07;34.00;54.30
16247;DHT22;8231;50.866;7.944;2022-08-25T11:31:41;33.60;55.50
16247;DHT22;8231;50.866;7.944;2022-08-25T11:34:13;33.10;55.60
16247;DHT22;8231;50.866;7.944;2022-08-25T11:36:49;32.80;56.40
16247;DHT22;8231;50.866;7.944;2022-08-25T11:39:31;32.50;56.70
16247;DHT22;8231;50.866;7.944;2022-08-25T11:42:15;32.80;57.80
16247;DHT22;8231;50.866;7.944;2022-08-25T11:44:53;33.10;57.50
16247;DHT22;8231;50.866;7.944;2022-08-25T11:48:03;33.10;57.30
16247;DHT22;8231;50.866;7.944;2022-08-25T11:50:55;33.50;56.60
16247;DHT22;8231;50.866;7.944;2022-08-25T11:53:25;33.90;55.90
16247;DHT22;8231;50.866;7.944;2022-08-25T11:56:00;33.80;54.10
16247;DHT22;8231;50.866;7.944;2022-08-25T12:04:38;34.10;53.00
16247;DHT22;8231;50.866;7.944;2022-08-25T12:07:20;34.70;52.70
16247;DHT22;8231;50.866;7.944;2022-08-25T12:10:16;35.30;50.60
16247;DHT22;8231;50.866;7.944;2022-08-25T12:15:55;35.40;50.60
16247;DHT22;8231;50.866;7.944;2022-08-25T12:18:43;35.50;50.20
16247;DHT22;8231;50.866;7.944;2022-08-25T12:21:31;35.00;50.60
16247;DHT22;8231;50.866;7.944;2022-08-25T12:24:14;34.20;52.10
16247;DHT22;8231;50.866;7.944;2022-08-25T12:26:50;33.60;53.60
16247;DHT22;8231;50.866;7.944;2022-08-25T12:29:27;33.00;54.40
16247;DHT22;8231;50.866;7.944;2022-08-25T12:32:05;32.80;55.40
16247;DHT22;8231;50.866;7.944;2022-08-25T12:35:14;32.60;55.30
16247;DHT22;8231;50.866;7.944;2022-08-25T12:38:01;32.50;55.70
16247;DHT22;8231;50.866;7.944;2022-08-25T12:40:34;32.40;55.90
16247;DHT22;8231;50.866;7.944;2022-08-25T12:43:07;32.60;56.50
16247;DHT22;8231;50.866;7.944;2022-08-25T12:45:43;32.90;55.00
16247;DHT22;8231;50.866;7.944;2022-08-25T12:48:52;32.60;55.20
16247;DHT22;8231;50.866;7.944;2022-08-25T12:51:23;32.60;55.60
16247;DHT22;8231;50.866;7.944;2022-08-25T12:53:53;32.80;55.70
16247;DHT22;8231;50.866;7.944;2022-08-25T12:56:28;32.80;55.30
16247;DHT22;8231;50.866;7.944;2022-08-25T12:59:09;32.80;54.70
16247;DHT22;8231;50.866;7.944;2022-08-25T13:01:57;32.90;54.50
16247;DHT22;8231;50.866;7.944;2022-08-25T13:05:00;32.70;54.30
16247;DHT22;8231;50.866;7.944;2022-08-25T13:07:46;32.90;53.80
16247;DHT22;8231;50.866;7.944;2022-08-25T13:10:28;32.90;54.40
16247;DHT22;8231;50.866;7.944;2022-08-25T13:13:04;33.30;54.00
16247;DHT22;8231;50.866;7.944;2022-08-25T13:15:37;33.40;51.80
16247;DHT22;8231;50.866;7.944;2022-08-25T13:18:29;33.40;51.50
16247;DHT22;8231;50.866;7.944;2022-08-25T13:21:05;33.60;53.60
16247;DHT22;8231;50.866;7.944;2022-08-25T13:23:37;33.80;51.10
16247;DHT22;8231;50.866;7.944;2022-08-25T13:26:09;33.70;51.80
16247;DHT22;8231;50.866;7.944;2022-08-25T13:28:41;33.90;50.60
16247;DHT22;8231;50.866;7.944;2022-08-25T13:31:19;33.80;50.70
16247;DHT22;8231;50.866;7.944;2022-08-25T13:33:54;33.70;50.70
16247;DHT22;8231;50.866;7.944;2022-08-25T13:36:23;34.00;49.90
16247;DHT22;8231;50.866;7.944;2022-08-25T13:39:22;34.10;50.60
16247;DHT22;8231;50.866;7.944;2022-08-25T13:42:13;33.90;50.60
16247;DHT22;8231;50.866;7.944;2022-08-25T13:44:42;33.30;51.20
16247;DHT22;8231;50.866;7.944;2022-08-25T13:47:32;33.10;53.50
16247;DHT22;8231;50.866;7.944;2022-08-25T13:50:33;33.10;51.70
16247;DHT22;8231;50.866;7.944;2022-08-25T13:53:04;32.80;52.20
16247;DHT22;8231;50.866;7.944;2022-08-25T13:55:47;32.70;53.00
16247;DHT22;8231;50.866;7.944;2022-08-25T13:58:19;32.70;53.30
16247;DHT22;8231;50.866;7.944;2022-08-25T14:01:06;32.70;52.30
16247;DHT22;8231;50.866;7.944;2022-08-25T14:04:18;32.60;52.80
16247;DHT22;8231;50.866;7.944;2022-08-25T14:06:47;32.80;52.80
16247;DHT22;8231;50.866;7.944;2022-08-25T14:09:17;33.20;52.60
16247;DHT22;8231;50.866;7.944;2022-08-25T14:11:55;33.40;52.10
16247;DHT22;8231;50.866;7.944;2022-08-25T14:14:31;33.30;52.10
16247;DHT22;8231;50.866;7.944;2022-08-25T14:17:04;33.30;51.10
16247;DHT22;8231;50.866;7.944;2022-08-25T14:19:53;33.20;52.50
16247;DHT22;8231;50.866;7.944;2022-08-25T14:22:23;33.40;50.90
16247;DHT22;8231;50.866;7.944;2022-08-25T14:24:53;33.50;50.70
16247;DHT22;8231;50.866;7.944;2022-08-25T14:27:22;33.50;50.60
16247;DHT22;8231;50.866;7.944;2022-08-25T14:29:50;33.70;51.00
16247;DHT22;8231;50.866;7.944;2022-08-25T14:32:19;33.90;50.70
16247;DHT22;8231;50.866;7.944;2022-08-25T14:34:47;33.50;51.40
16247;DHT22;8231;50.866;7.944;2022-08-25T14:37:18;33.30;51.00
16247;DHT22;8231;50.866;7.944;2022-08-25T14:39:52;33.10;51.30
16247;DHT22;8231;50.866;7.944;2022-08-25T14:42:21;32.90;51.40
16247;DHT22;8231;50.866;7.944;2022-08-25T14:44:52;33.20;51.50
16247;DHT22;8231;50.866;7.944;2022-08-25T14:47:22;33.40;51.40
16247;DHT22;8231;50.866;7.944;2022-08-25T14:49:50;33.40;51.00
16247;DHT22;8231;50.866;7.944;2022-08-25T14:52:20;33.60;50.80
16247;DHT22;8231;50.866;7.944;2022-08-25T14:54:54;33.60;52.00
16247;DHT22;8231;50.866;7.944;2022-08-25T14:57:22;33.50;52.40
16247;DHT22;8231;50.866;7.944;2022-08-25T14:59:52;33.40;53.10
16247;DHT22;8231;50.866;7.944;2022-08-25T15:02:21;33.50;52.90
16247;DHT22;8231;50.866;7.944;2022-08-25T15:04:59;33.30;53.20
16247;DHT22;8231;50.866;7.944;2022-08-25T15:07:32;33.30;52.40
16247;DHT22;8231;50.866;7.944;2022-08-25T15:10:20;33.20;52.50
16247;DHT22;8231;50.866;7.944;2022-08-25T15:12:48;33.10;53.30
16247;DHT22;8231;50.866;7.944;2022-08-25T15:15:21;33.00;52.50
16247;DHT22;8231;50.866;7.944;2022-08-25T15:17:52;32.90;52.40
16247;DHT22;8231;50.866;7.944;2022-08-25T15:20:23;32.90;52.50
16247;DHT22;8231;50.866;7.944;2022-08-25T15:22:52;33.10;52.10
16247;DHT22;8231;50.866;7.944;2022-08-25T15:25:22;33.00;51.40
16247;DHT22;8231;50.866;7.944;2022-08-25T15:27:50;32.80;53.10
16247;DHT22;8231;50.866;7.944;2022-08-25T15:30:18;33.00;52.00
16247;DHT22;8231;50.866;7.944;2022-08-25T15:32:56;33.00;51.30
16247;DHT22;8231;50.866;7.944;2022-08-25T15:35:25;33.00;51.00
16247;DHT22;8231;50.866;7.944;2022-08-25T15:37:55;32.90;51.30
16247;DHT22;8231;50.866;7.944;2022-08-25T15:40:24;33.00;51.00
16247;DHT22;8231;50.866;7.944;2022-08-25T15:42:53;33.10;52.00
16247;DHT22;8231;50.866;7.944;2022-08-25T15:45:21;33.30;52.00
16247;DHT22;8231;50.866;7.944;2022-08-25T15:47:50;33.00;51.80
16247;DHT22;8231;50.866;7.944;2022-08-25T15:50:35;33.00;52.10
16247;DHT22;8231;50.866;7.944;2022-08-25T15:53:04;32.80;53.00
16247;DHT22;8231;50.866;7.944;2022-08-25T15:55:39;32.60;52.60
16247;DHT22;8231;50.866;7.944;2022-08-25T15:58:07;32.70;52.60
16247;DHT22;8231;50.866;7.944;2022-08-25T16:00:35;32.60;53.90
16247;DHT22;8231;50.866;7.944;2022-08-25T16:03:04;32.60;53.40
16247;DHT22;8231;50.866;7.944;2022-08-25T16:05:34;32.60;55.10
16247;DHT22;8231;50.866;7.944;2022-08-25T16:08:03;32.50;53.40
16247;DHT22;8231;50.866;7.944;2022-08-25T16:10:42;32.40;55.20
16247;DHT22;8231;50.866;7.944;2022-08-25T16:13:11;32.20;55.20
16247;DHT22;8231;50.866;7.944;2022-08-25T16:15:39;32.10;55.20
16247;DHT22;8231;50.866;7.944;2022-08-25T16:18:08;32.00;55.20
16247;DHT22;8231;50.866;7.944;2022-08-25T16:20:36;31.90;55.30
16247;DHT22;8231;50.866;7.944;2022-08-25T16:23:09;31.60;55.30
16247;DHT22;8231;50.866;7.944;2022-08-25T16:25:38;31.40;55.90
16247;DHT22;8231;50.866;7.944;2022-08-25T16:28:11;31.40;55.80
16247;DHT22;8231;50.866;7.944;2022-08-25T16:30:43;31.40;55.90
16247;DHT22;8231;50.866;7.944;2022-08-25T16:33:19;31.50;55.70
16247;DHT22;8231;50.866;7.944;2022-08-25T16:35:47;31.50;55.30